createdAt,value
2022-10-19T20:42:53.719Z,12.69
2022-10-19T20:46:15.889Z,9.30
2022-10-19T20:48:18.334Z,9.29
2022-10-19T20:50:21.990Z,8.76
2022-10-19T20:52:24.550Z,8.56
2022-10-19T20:54:26.974Z,8.07
2022-10-19T20:56:31.301Z,8.19
2022-10-19T20:58:34.552Z,7.79
2022-10-19T21:00:37.169Z,7.48
2022-10-19T21:02:41.159Z,7.24
2022-10-19T21:04:44.052Z,7.09
2022-10-19T21:06:48.989Z,7.05
2022-10-19T21:08:52.223Z,7.02
2022-10-19T21:10:54.908Z,7.04
2022-10-19T21:12:57.514Z,6.92
2022-10-19T21:15:00.100Z,6.89
2022-10-19T21:17:02.739Z,6.82
2022-10-19T21:19:09.313Z,6.78
2022-10-19T21:21:14.770Z,6.76
2022-10-19T21:23:17.357Z,6.73
2022-10-19T21:25:19.963Z,6.69
2022-10-19T21:27:22.646Z,6.60
2022-10-19T21:29:25.254Z,6.60
2022-10-19T21:31:28.678Z,6.50
2022-10-19T21:33:31.302Z,6.45
2022-10-19T21:35:36.880Z,6.42
2022-10-19T21:37:39.512Z,6.41
2022-10-19T21:39:42.688Z,6.39
2022-10-19T21:41:45.392Z,6.38
2022-10-19T21:43:48.285Z,6.39
2022-10-19T21:45:50.943Z,6.48
2022-10-19T21:47:53.556Z,6.47
2022-10-19T21:49:56.189Z,6.43
2022-10-19T21:52:04.374Z,6.48
2022-10-19T21:54:08.659Z,6.49
2022-10-19T21:56:11.327Z,6.41
2022-10-19T21:58:14.690Z,6.33
2022-10-19T22:00:17.302Z,6.30
2022-10-19T22:02:19.931Z,6.32
2022-10-19T22:04:22.924Z,6.32
2022-10-19T22:06:25.649Z,6.26
2022-10-19T22:08:29.693Z,6.28
2022-10-19T22:10:32.456Z,6.35
2022-10-19T22:12:35.287Z,6.35
2022-10-19T22:14:38.057Z,6.39
2022-10-19T22:16:41.577Z,6.33
2022-10-19T22:18:44.898Z,6.31
2022-10-19T22:20:47.557Z,6.27
2022-10-19T22:22:52.742Z,6.28
2022-10-19T22:24:58.880Z,6.32
2022-10-19T22:27:01.489Z,6.28
2022-10-19T22:29:05.944Z,6.21
2022-10-19T22:31:09.014Z,6.19
2022-10-19T22:33:11.668Z,6.19
2022-10-19T22:35:14.286Z,6.21
2022-10-19T22:37:16.937Z,6.21
2022-10-19T22:39:19.540Z,6.22
2022-10-19T22:41:23.556Z,6.25
2022-10-19T22:43:26.204Z,6.25
2022-10-19T22:45:28.848Z,6.21
2022-10-19T22:47:31.462Z,6.24
2022-10-19T22:49:34.075Z,6.30
2022-10-19T22:51:36.751Z,6.31
2022-10-19T22:53:39.370Z,6.34
2022-10-19T22:55:42.067Z,6.29
2022-10-19T22:57:46.072Z,6.27
2022-10-19T22:59:48.664Z,6.27
2022-10-19T23:01:51.355Z,6.18
2022-10-19T23:03:54.011Z,6.41
2022-10-19T23:05:56.685Z,6.52
2022-10-19T23:07:59.265Z,6.48
2022-10-19T23:10:02.407Z,6.57
2022-10-19T23:12:05.460Z,6.78
2022-10-19T23:14:09.612Z,6.74
2022-10-19T23:16:12.245Z,6.73
2022-10-19T23:18:15.013Z,6.82
2022-10-19T23:20:17.715Z,6.74
2022-10-19T23:22:20.995Z,6.65
2022-10-19T23:24:23.731Z,6.70
2022-10-19T23:26:32.372Z,6.58
2022-10-19T23:28:36.686Z,6.54
2022-10-19T23:30:40.621Z,6.52
2022-10-19T23:32:43.224Z,6.47
2022-10-19T23:34:48.291Z,6.40
2022-10-19T23:36:51.263Z,6.37
2022-10-19T23:38:55.592Z,6.28
2022-10-19T23:40:58.197Z,6.23
2022-10-19T23:43:00.772Z,6.22
2022-10-19T23:45:03.409Z,6.18
2022-10-19T23:47:07.407Z,6.17
2022-10-19T23:49:10.005Z,6.08
2022-10-19T23:51:15.180Z,6.11
2022-10-19T23:53:17.767Z,6.16
2022-10-19T23:55:20.372Z,6.10
2022-10-19T23:57:22.951Z,6.05
2022-10-19T23:59:25.605Z,6.05
